createdAt,value
2018-09-18T00:00:41.254Z,10.70
2018-09-18T00:03:10.759Z,10.60
2018-09-18T00:05:40.327Z,10.60
2018-09-18T00:08:09.718Z,10.60
2018-09-18T00:10:39.036Z,10.70
2018-09-18T00:13:08.207Z,10.70
2018-09-18T00:15:37.575Z,10.70
2018-09-18T00:18:06.961Z,10.70
2018-09-18T00:20:36.266Z,10.80
2018-09-18T00:23:05.423Z,10.90
2018-09-18T00:25:35.733Z,11.00
2018-09-18T00:28:05.207Z,10.90
2018-09-18T00:30:34.361Z,10.80
2018-09-18T00:33:03.506Z,10.80
2018-09-18T00:35:32.904Z,10.70
2018-09-18T00:38:02.253Z,10.60
2018-09-18T00:40:31.369Z,10.50
2018-09-18T00:43:01.042Z,10.50
2018-09-18T00:45:31.325Z,10.30
2018-09-18T00:48:00.549Z,10.10
2018-09-18T00:50:30.766Z,10.00
2018-09-18T00:52:59.936Z,9.90
2018-09-18T00:55:29.293Z,9.90
2018-09-18T00:57:58.775Z,9.80
2018-09-18T01:00:28.186Z,9.70
2018-09-18T01:02:57.409Z,9.70
2018-09-18T01:05:26.910Z,9.80
2018-09-18T01:07:56.259Z,9.90
2018-09-18T01:10:25.624Z,9.90
2018-09-18T01:12:55.027Z,9.90
2018-09-18T01:15:24.516Z,9.90
2018-09-18T01:17:53.564Z,9.80
2018-09-18T01:20:22.735Z,9.90
2018-09-18T01:22:52.040Z,9.80
2018-09-18T01:25:21.267Z,9.70
2018-09-18T01:27:50.600Z,9.70
2018-09-18T01:30:19.902Z,9.70
2018-09-18T01:32:49.286Z,9.60
2018-09-18T01:35:18.557Z,9.50
2018-09-18T01:37:47.766Z,9.50
2018-09-18T01:40:17.329Z,9.50
2018-09-18T01:42:46.770Z,9.60
2018-09-18T01:45:16.152Z,9.60
2018-09-18T01:47:45.499Z,9.60
2018-09-18T01:50:14.979Z,9.60
2018-09-18T01:52:44.411Z,9.60
2018-09-18T01:55:13.823Z,9.60
2018-09-18T01:57:43.153Z,9.60
2018-09-18T02:00:12.569Z,9.50
2018-09-18T02:02:41.822Z,9.40
2018-09-18T02:05:11.143Z,9.40
2018-09-18T02:07:40.600Z,9.40
2018-09-18T02:10:10.419Z,9.30
2018-09-18T02:12:39.931Z,9.30
2018-09-18T02:15:09.493Z,9.20
2018-09-18T02:17:39.122Z,9.20
2018-09-18T02:20:08.458Z,9.10
2018-09-18T02:22:37.850Z,9.10
2018-09-18T02:25:06.957Z,9.10
2018-09-18T02:27:35.911Z,9.10
2018-09-18T02:30:05.224Z,9.20
2018-09-18T02:32:34.101Z,9.20
2018-09-18T02:35:03.254Z,9.20
2018-09-18T02:37:32.793Z,9.20
2018-09-18T02:40:01.934Z,9.20
2018-09-18T02:42:31.749Z,9.30
2018-09-18T02:45:00.956Z,9.30
2018-09-18T02:47:30.461Z,9.20
2018-09-18T02:50:00.022Z,9.10
2018-09-18T02:52:29.475Z,9.00
2018-09-18T02:54:58.921Z,9.00
2018-09-18T02:57:28.424Z,9.00
2018-09-18T02:59:57.918Z,9.00
2018-09-18T03:02:27.215Z,9.00
2018-09-18T03:04:56.635Z,9.00
2018-09-18T03:07:25.810Z,9.00
2018-09-18T03:09:55.384Z,9.00
2018-09-18T03:12:24.760Z,9.10
2018-09-18T03:14:54.040Z,9.10
2018-09-18T03:17:23.206Z,9.10
2018-09-18T03:19:52.319Z,9.00
2018-09-18T03:22:21.623Z,9.00
2018-09-18T03:24:51.097Z,8.90
2018-09-18T03:27:20.455Z,8.80
2018-09-18T03:29:49.964Z,8.80
2018-09-18T03:32:19.563Z,8.80
2018-09-18T03:34:49.006Z,8.70
2018-09-18T03:37:18.499Z,8.70
2018-09-18T03:39:48.065Z,8.70
2018-09-18T03:42:17.335Z,8.70
2018-09-18T03:44:46.717Z,8.80
2018-09-18T03:47:15.946Z,8.90
2018-09-18T03:49:45.102Z,8.90
2018-09-18T03:52:14.553Z,8.90
2018-09-18T03:54:43.818Z,8.90
2018-09-18T03:57:12.807Z,8.90
2018-09-18T03:59:42.412Z,8.90
2018-09-18T04:02:11.654Z,8.80
2018-09-18T04:04:41.047Z,8.80
2018-09-18T04:07:10.278Z,8.90
2018-09-18T04:09:39.793Z,9.00
2018-09-18T04:12:08.786Z,9.00
2018-09-18T04:14:37.695Z,9.10
2018-09-18T04:17:07.440Z,9.20
2018-09-18T04:19:38.810Z,9.30
2018-09-18T04:22:07.831Z,9.30
2018-09-18T04:24:36.709Z,9.30
2018-09-18T04:27:05.699Z,9.30
2018-09-18T04:29:34.837Z,9.20
2018-09-18T04:32:04.001Z,9.10
2018-09-18T04:34:33.401Z,9.10
2018-09-18T04:37:02.980Z,9.00
2018-09-18T04:39:32.307Z,9.00
2018-09-18T04:42:01.386Z,9.00
2018-09-18T04:44:30.808Z,9.00
2018-09-18T04:47:00.168Z,8.90
2018-09-18T04:49:29.460Z,8.90
2018-09-18T04:51:58.668Z,8.80
2018-09-18T04:54:28.203Z,8.80
2018-09-18T04:56:57.369Z,8.70
2018-09-18T04:59:26.795Z,8.70
2018-09-18T05:01:56.193Z,8.80
2018-09-18T05:04:25.621Z,8.90
2018-09-18T05:06:54.759Z,8.90
2018-09-18T05:09:24.056Z,8.90
2018-09-18T05:11:53.833Z,9.00
2018-09-18T05:14:23.060Z,9.10
2018-09-18T05:16:52.454Z,9.20
2018-09-18T05:19:21.888Z,9.40
2018-09-18T05:21:51.418Z,9.40
2018-09-18T05:24:20.799Z,9.50
2018-09-18T05:26:50.021Z,9.60
2018-09-18T05:29:19.343Z,9.60
2018-09-18T05:31:48.480Z,9.60
2018-09-18T05:34:17.833Z,9.60
2018-09-18T05:36:47.221Z,9.70
2018-09-18T05:39:16.309Z,9.80
2018-09-18T05:41:46.130Z,9.90
2018-09-18T05:44:15.437Z,10.00
2018-09-18T05:46:44.924Z,10.10
2018-09-18T05:49:14.563Z,10.20
2018-09-18T05:51:44.090Z,10.30
2018-09-18T05:54:13.674Z,10.60
2018-09-18T05:56:43.360Z,11.20
2018-09-18T05:59:12.563Z,11.90
2018-09-18T06:01:42.070Z,12.80
2018-09-18T06:04:11.493Z,13.80
2018-09-18T06:06:40.892Z,14.80
2018-09-18T06:09:11.653Z,15.60
2018-09-18T06:11:41.012Z,16.40
2018-09-18T06:14:10.635Z,17.00
2018-09-18T06:16:39.926Z,17.60
2018-09-18T06:19:09.255Z,18.10
2018-09-18T06:21:38.743Z,18.60
2018-09-18T06:24:08.315Z,19.10
2018-09-18T06:26:37.719Z,19.40
2018-09-18T06:29:07.046Z,19.80
2018-09-18T06:31:35.973Z,20.40
2018-09-18T06:34:05.306Z,20.70
2018-09-18T06:36:34.377Z,20.90
2018-09-18T06:39:04.411Z,21.10
2018-09-18T06:41:33.845Z,21.30
2018-09-18T06:44:03.299Z,21.70
2018-09-18T06:46:32.657Z,22.10
2018-09-18T06:49:01.773Z,22.50
2018-09-18T06:51:31.130Z,22.80
2018-09-18T06:54:00.341Z,23.10
2018-09-18T06:56:29.940Z,23.50
2018-09-18T06:58:59.229Z,23.80
2018-09-18T07:01:28.845Z,24.10
2018-09-18T07:03:57.827Z,24.20
2018-09-18T07:06:26.908Z,24.60
2018-09-18T07:08:55.878Z,24.90
2018-09-18T07:11:24.750Z,25.00
2018-09-18T07:13:54.227Z,25.40
2018-09-18T07:16:23.404Z,26.10
2018-09-18T07:18:52.571Z,26.30
2018-09-18T07:21:21.806Z,26.50
2018-09-18T07:23:51.385Z,26.20
2018-09-18T07:26:20.876Z,26.20
2018-09-18T07:28:49.991Z,26.50
2018-09-18T07:31:19.275Z,27.00
2018-09-18T07:33:48.529Z,27.50
2018-09-18T07:36:18.072Z,27.00
2018-09-18T07:38:47.547Z,26.10
2018-09-18T07:41:16.759Z,25.60
2018-09-18T07:43:46.054Z,25.40
2018-09-18T07:46:15.585Z,25.50
2018-09-18T07:48:46.854Z,25.10
2018-09-18T07:51:16.095Z,24.70
2018-09-18T07:53:45.536Z,24.80
2018-09-18T07:56:15.111Z,25.20
2018-09-18T07:58:44.639Z,25.60
2018-09-18T08:01:14.152Z,26.10
2018-09-18T08:03:43.446Z,27.20
2018-09-18T08:06:12.534Z,27.40
2018-09-18T08:08:42.021Z,28.00
2018-09-18T08:11:11.581Z,28.30
2018-09-18T08:13:40.814Z,27.90
2018-09-18T08:16:10.586Z,28.30
2018-09-18T08:18:40.427Z,27.70
2018-09-18T08:21:09.736Z,26.50
2018-09-18T08:23:39.275Z,26.20
2018-09-18T08:26:08.686Z,26.70
2018-09-18T08:28:38.198Z,27.10
2018-09-18T08:31:08.086Z,27.50
2018-09-18T08:33:37.335Z,27.80
2018-09-18T08:36:07.136Z,27.60
2018-09-18T08:38:36.699Z,27.30
2018-09-18T08:41:05.678Z,27.10
2018-09-18T08:43:35.287Z,27.30
2018-09-18T08:46:05.024Z,27.10
2018-09-18T08:48:33.905Z,27.10
2018-09-18T08:51:03.821Z,27.20
2018-09-18T08:53:33.727Z,27.30
2018-09-18T08:56:03.195Z,26.90
2018-09-18T08:58:32.684Z,26.40
2018-09-18T09:01:01.689Z,26.70
2018-09-18T09:03:31.892Z,26.80
2018-09-18T09:06:01.439Z,26.70
2018-09-18T09:08:30.699Z,27.10
2018-09-18T09:11:00.151Z,27.50
2018-09-18T09:13:29.537Z,28.20
2018-09-18T09:15:58.916Z,28.70
2018-09-18T09:18:28.394Z,28.80
2018-09-18T09:20:57.834Z,29.20
2018-09-18T09:23:27.164Z,29.70
2018-09-18T09:25:56.841Z,30.20
2018-09-18T09:28:26.253Z,30.00
2018-09-18T09:30:58.157Z,29.80
2018-09-18T09:33:27.591Z,30.20
2018-09-18T09:35:56.867Z,31.00
2018-09-18T09:38:26.056Z,31.00
2018-09-18T09:40:54.954Z,30.60
2018-09-18T09:43:24.431Z,30.80
2018-09-18T09:45:53.865Z,30.40
2018-09-18T09:48:23.285Z,30.40
2018-09-18T09:50:52.868Z,30.10
2018-09-18T09:53:23.206Z,29.50
2018-09-18T09:55:52.504Z,28.90
2018-09-18T09:58:21.896Z,29.40
2018-09-18T10:00:56.618Z,30.20
2018-09-18T10:03:27.059Z,30.20
2018-09-18T10:05:57.963Z,31.20
2018-09-18T10:08:27.548Z,31.40
2018-09-18T10:10:56.940Z,30.80
2018-09-18T10:13:25.993Z,30.70
2018-09-18T10:15:55.945Z,31.10
2018-09-18T10:18:25.109Z,31.20
2018-09-18T10:20:54.568Z,31.20
2018-09-18T10:23:24.042Z,31.90
2018-09-18T10:25:53.575Z,31.00
2018-09-18T10:28:23.077Z,30.20
2018-09-18T10:30:52.292Z,30.30
2018-09-18T10:33:21.880Z,31.00
2018-09-18T10:35:51.457Z,31.70
2018-09-18T10:38:20.729Z,29.70
2018-09-18T10:40:50.438Z,30.60
2018-09-18T10:43:20.088Z,31.40
2018-09-18T10:45:49.514Z,31.50
2018-09-18T10:48:19.151Z,31.60
2018-09-18T10:50:48.532Z,31.80
2018-09-18T10:53:17.767Z,31.40
2018-09-18T10:55:47.187Z,31.60
2018-09-18T10:58:16.501Z,32.20
2018-09-18T11:00:45.658Z,32.90
2018-09-18T11:03:14.590Z,32.80
2018-09-18T11:05:44.044Z,32.60
2018-09-18T11:08:13.566Z,31.40
2018-09-18T11:10:43.379Z,31.20
2018-09-18T11:13:12.962Z,32.30
2018-09-18T11:15:42.400Z,32.10
2018-09-18T11:18:11.971Z,31.60
2018-09-18T11:20:41.429Z,31.90
2018-09-18T11:23:10.945Z,32.10
2018-09-18T11:25:40.599Z,32.80
2018-09-18T11:28:10.031Z,32.90
2018-09-18T11:30:39.417Z,33.70
2018-09-18T11:33:08.737Z,32.50
2018-09-18T11:35:38.319Z,33.30
2018-09-18T11:38:07.733Z,33.50
2018-09-18T11:40:37.085Z,33.00
2018-09-18T11:43:06.543Z,31.40
2018-09-18T11:45:35.734Z,32.40
2018-09-18T11:48:07.372Z,32.30
2018-09-18T11:50:36.841Z,31.40
2018-09-18T11:53:06.010Z,31.60
2018-09-18T11:55:34.968Z,31.90
2018-09-18T11:58:04.145Z,33.10
2018-09-18T12:00:33.504Z,34.50
2018-09-18T12:03:02.934Z,35.30
2018-09-18T12:05:32.433Z,35.90
2018-09-18T12:08:01.734Z,36.10
2018-09-18T12:13:05.706Z,33.70
2018-09-18T12:15:35.937Z,34.20
2018-09-18T12:18:04.936Z,33.80
2018-09-18T12:20:34.046Z,33.00
2018-09-18T12:23:03.456Z,33.30
2018-09-18T12:25:32.869Z,34.10
2018-09-18T12:28:02.240Z,34.30
2018-09-18T12:30:31.918Z,34.60
2018-09-18T12:33:01.533Z,35.20
2018-09-18T12:35:31.455Z,34.00
2018-09-18T12:38:01.099Z,31.60
2018-09-18T12:40:30.461Z,31.50
2018-09-18T12:42:59.895Z,31.20
2018-09-18T12:45:29.489Z,30.80
2018-09-18T12:47:59.384Z,31.30
2018-09-18T12:50:28.621Z,31.90
2018-09-18T12:52:57.759Z,32.50
2018-09-18T12:55:27.653Z,34.10
2018-09-18T12:57:57.099Z,34.70
2018-09-18T13:00:26.677Z,35.10
2018-09-18T13:02:56.038Z,32.90
2018-09-18T13:05:25.782Z,31.50
2018-09-18T13:07:55.157Z,32.40
2018-09-18T13:10:24.523Z,33.30
2018-09-18T13:12:53.814Z,33.80
2018-09-18T13:15:23.347Z,34.20
2018-09-18T13:17:52.774Z,34.40
2018-09-18T13:20:22.731Z,34.70
2018-09-18T13:22:52.270Z,35.20
2018-09-18T13:25:21.685Z,35.70
2018-09-18T13:27:51.041Z,36.10
2018-09-18T13:30:20.416Z,36.40
2018-09-18T13:32:49.783Z,37.40
2018-09-18T13:35:19.295Z,36.80
2018-09-18T13:37:48.786Z,35.50
2018-09-18T13:40:18.088Z,33.10
2018-09-18T13:42:47.771Z,32.30
2018-09-18T13:45:17.235Z,33.30
2018-09-18T13:47:46.698Z,34.00
2018-09-18T13:50:16.071Z,34.50
2018-09-18T13:52:45.237Z,35.00
2018-09-18T13:55:14.705Z,33.70
2018-09-18T13:57:43.965Z,32.20
2018-09-18T14:00:13.534Z,32.30
2018-09-18T14:02:42.970Z,33.10
2018-09-18T14:05:12.416Z,33.30
2018-09-18T14:07:41.642Z,32.00
2018-09-18T14:10:13.340Z,32.30
2018-09-18T14:12:42.513Z,32.90
2018-09-18T14:15:11.932Z,32.30
2018-09-18T14:17:41.270Z,32.00
2018-09-18T14:20:10.716Z,32.40
2018-09-18T14:22:40.022Z,32.00
2018-09-18T14:25:09.627Z,32.50
2018-09-18T14:27:39.011Z,33.10
2018-09-18T14:30:08.653Z,33.80
2018-09-18T14:32:37.906Z,34.40
2018-09-18T14:35:08.286Z,33.50
2018-09-18T14:37:37.626Z,32.70
2018-09-18T14:40:06.906Z,31.70
2018-09-18T14:42:36.549Z,31.30
2018-09-18T14:45:05.704Z,31.10
2018-09-18T14:47:34.865Z,31.60
2018-09-18T14:50:03.807Z,32.00
2018-09-18T14:52:33.216Z,32.20
2018-09-18T14:55:02.634Z,32.30
2018-09-18T14:57:32.111Z,32.90
2018-09-18T15:00:01.524Z,33.00
2018-09-18T15:02:30.636Z,32.60
2018-09-18T15:05:00.116Z,31.90
2018-09-18T15:07:29.579Z,31.80
2018-09-18T15:09:58.909Z,32.00
2018-09-18T15:12:28.242Z,31.10
2018-09-18T15:14:57.669Z,30.80
2018-09-18T15:17:27.319Z,30.90
2018-09-18T15:19:56.527Z,30.90
2018-09-18T15:22:26.107Z,30.80
2018-09-18T15:24:55.805Z,30.90
2018-09-18T15:27:25.222Z,30.80
2018-09-18T15:29:54.589Z,30.90
2018-09-18T15:32:24.007Z,30.80
2018-09-18T15:34:53.331Z,30.90
2018-09-18T15:37:22.700Z,30.90
2018-09-18T15:39:52.243Z,30.90
2018-09-18T15:42:21.619Z,30.80
2018-09-18T15:44:50.945Z,30.60
2018-09-18T15:47:20.367Z,30.60
2018-09-18T15:49:49.565Z,30.70
2018-09-18T15:52:18.992Z,30.80
2018-09-18T15:54:48.924Z,30.70
2018-09-18T15:57:18.224Z,30.60
2018-09-18T15:59:47.572Z,30.40
2018-09-18T16:02:16.932Z,30.00
2018-09-18T16:04:46.055Z,30.00
2018-09-18T16:07:15.400Z,29.90
2018-09-18T16:09:44.896Z,29.90
2018-09-18T16:12:14.258Z,29.90
2018-09-18T16:14:44.337Z,30.00
2018-09-18T16:17:13.931Z,29.70
2018-09-18T16:19:43.270Z,29.50
2018-09-18T16:22:12.704Z,29.20
2018-09-18T16:24:41.969Z,29.30
2018-09-18T16:27:11.572Z,29.20
2018-09-18T16:29:40.878Z,29.20
2018-09-18T16:32:10.331Z,29.10
2018-09-18T16:34:39.809Z,29.10
2018-09-18T16:37:09.146Z,28.90
2018-09-18T16:39:38.429Z,28.80
2018-09-18T16:42:07.384Z,28.60
2018-09-18T16:44:37.100Z,28.40
2018-09-18T16:47:06.262Z,28.10
2018-09-18T16:49:35.708Z,28.00
2018-09-18T16:52:04.878Z,27.80
2018-09-18T16:54:34.078Z,27.70
2018-09-18T16:57:07.709Z,27.50
2018-09-18T16:59:36.982Z,27.20
2018-09-18T17:02:06.475Z,26.90
2018-09-18T17:04:35.400Z,26.50
2018-09-18T17:07:04.732Z,26.20
2018-09-18T17:09:34.039Z,25.80
2018-09-18T17:12:03.367Z,25.40
2018-09-18T17:14:32.788Z,25.00
2018-09-18T17:17:02.250Z,24.50
2018-09-18T17:19:31.665Z,23.90
2018-09-18T17:22:01.020Z,23.50
2018-09-18T17:24:30.561Z,23.00
2018-09-18T17:26:59.935Z,22.70
2018-09-18T17:29:29.323Z,22.30
2018-09-18T17:31:58.493Z,22.00
2018-09-18T17:34:27.923Z,21.70
2018-09-18T17:36:57.252Z,21.50
2018-09-18T17:39:26.807Z,21.40
2018-09-18T17:41:56.283Z,21.40
2018-09-18T17:44:25.669Z,21.20
2018-09-18T17:46:55.319Z,21.00
2018-09-18T17:49:26.061Z,20.80
2018-09-18T17:51:55.334Z,20.70
2018-09-18T17:54:24.849Z,20.50
2018-09-18T17:56:54.176Z,20.40
2018-09-18T17:59:23.789Z,20.30
2018-09-18T18:01:53.275Z,20.00
2018-09-18T18:04:22.399Z,19.80
2018-09-18T18:06:51.863Z,19.60
2018-09-18T18:09:21.177Z,19.40
2018-09-18T18:11:50.586Z,19.30
2018-09-18T18:14:20.245Z,19.30
2018-09-18T18:16:49.787Z,19.30
2018-09-18T18:19:19.411Z,19.20
2018-09-18T18:21:48.599Z,19.00
2018-09-18T18:24:17.917Z,18.90
2018-09-18T18:26:47.418Z,18.70
2018-09-18T18:29:16.651Z,18.50
2018-09-18T18:31:46.030Z,18.50
2018-09-18T18:34:15.764Z,18.50
2018-09-18T18:36:44.978Z,18.30
2018-09-18T18:39:14.239Z,18.00
2018-09-18T18:41:44.032Z,17.80
2018-09-18T18:44:13.385Z,17.80
2018-09-18T18:46:42.822Z,17.80
2018-09-18T18:49:12.419Z,17.70
2018-09-18T18:51:41.854Z,17.60
2018-09-18T18:54:11.341Z,17.70
2018-09-18T18:56:40.835Z,17.50
2018-09-18T18:59:10.177Z,17.50
2018-09-18T19:01:39.818Z,17.30
2018-09-18T19:04:09.198Z,17.30
2018-09-18T19:06:38.932Z,17.10
2018-09-18T19:09:09.459Z,17.00
2018-09-18T19:11:38.776Z,16.90
2018-09-18T19:14:07.916Z,16.80
2018-09-18T19:16:37.381Z,16.70
2018-09-18T19:19:07.107Z,16.60
2018-09-18T19:21:36.900Z,16.60
2018-09-18T19:24:06.203Z,16.50
2018-09-18T19:26:35.510Z,16.60
2018-09-18T19:29:04.579Z,16.50
2018-09-18T19:31:34.133Z,16.50
2018-09-18T19:34:03.322Z,16.50
2018-09-18T19:36:32.645Z,16.50
2018-09-18T19:39:02.813Z,16.50
2018-09-18T19:41:32.388Z,16.40
2018-09-18T19:44:01.916Z,16.30
2018-09-18T19:46:31.714Z,16.40
2018-09-18T19:49:01.056Z,16.40
2018-09-18T19:51:30.681Z,16.30
2018-09-18T19:54:00.439Z,16.30
2018-09-18T19:56:30.079Z,16.40
2018-09-18T19:58:59.395Z,16.50
2018-09-18T20:01:28.970Z,16.60
2018-09-18T20:03:58.321Z,16.60
2018-09-18T20:06:27.922Z,16.60
2018-09-18T20:08:57.740Z,16.60
2018-09-18T20:11:27.360Z,16.50
2018-09-18T20:13:56.941Z,16.50
2018-09-18T20:16:26.349Z,16.40
2018-09-18T20:18:55.847Z,16.40
2018-09-18T20:21:24.983Z,16.30
2018-09-18T20:23:54.393Z,16.20
2018-09-18T20:26:24.016Z,16.10
2018-09-18T20:28:53.478Z,16.10
2018-09-18T20:31:23.373Z,16.00
2018-09-18T20:33:53.316Z,16.00
2018-09-18T20:36:22.925Z,15.90
2018-09-18T20:38:53.447Z,15.80
2018-09-18T20:41:23.368Z,15.80
2018-09-18T20:43:52.687Z,15.70
2018-09-18T20:46:22.385Z,15.60
2018-09-18T20:48:52.085Z,15.60
2018-09-18T20:51:21.474Z,15.40
2018-09-18T20:53:50.829Z,15.40
2018-09-18T20:56:20.197Z,15.40
2018-09-18T20:58:49.835Z,15.30
2018-09-18T21:01:19.109Z,15.30
2018-09-18T21:03:48.590Z,15.30
2018-09-18T21:06:17.987Z,15.30
2018-09-18T21:08:47.480Z,15.50
2018-09-18T21:11:16.926Z,15.70
2018-09-18T21:13:46.350Z,15.90
2018-09-18T21:16:15.747Z,15.80
2018-09-18T21:18:45.382Z,15.70
2018-09-18T21:21:14.824Z,15.70
2018-09-18T21:23:44.117Z,15.70
2018-09-18T21:26:18.050Z,15.50
2018-09-18T21:28:47.597Z,15.20
2018-09-18T21:31:17.085Z,15.00
2018-09-18T21:34:16.975Z,14.90
2018-09-18T21:36:46.417Z,14.70
2018-09-18T21:39:15.979Z,14.70
2018-09-18T21:41:45.342Z,14.60
2018-09-18T21:44:14.527Z,14.60
2018-09-18T21:46:43.489Z,14.60
2018-09-18T21:49:12.481Z,14.60
2018-09-18T21:51:41.566Z,14.60
2018-09-18T21:54:11.101Z,14.60
2018-09-18T21:56:41.503Z,14.50
2018-09-18T21:59:11.536Z,14.40
2018-09-18T22:01:41.816Z,14.40
2018-09-18T22:04:11.329Z,14.40
2018-09-18T22:06:41.533Z,14.40
2018-09-18T22:09:10.927Z,14.50
2018-09-18T22:11:40.276Z,14.60
2018-09-18T22:14:09.522Z,14.50
2018-09-18T22:16:38.956Z,14.50
2018-09-18T22:19:09.017Z,14.40
2018-09-18T22:21:38.700Z,14.30
2018-09-18T22:24:08.149Z,14.30
2018-09-18T22:26:38.266Z,14.40
2018-09-18T22:29:07.707Z,14.40
2018-09-18T22:31:37.350Z,14.50
2018-09-18T22:34:06.926Z,14.50
2018-09-18T22:36:36.222Z,14.70
2018-09-18T22:39:07.166Z,14.80
2018-09-18T22:41:36.698Z,14.80
2018-09-18T22:44:05.987Z,14.80
2018-09-18T22:46:35.516Z,14.70
2018-09-18T22:49:04.869Z,14.60
2018-09-18T22:51:34.103Z,14.50
2018-09-18T22:54:03.448Z,14.50
2018-09-18T22:56:33.023Z,14.40
2018-09-18T22:59:02.398Z,14.30
2018-09-18T23:01:31.744Z,14.20
2018-09-18T23:04:01.202Z,14.20
2018-09-18T23:06:30.695Z,14.20
2018-09-18T23:09:00.192Z,14.20
2018-09-18T23:11:29.472Z,14.10
2018-09-18T23:13:58.835Z,14.10
2018-09-18T23:16:28.185Z,14.00
2018-09-18T23:18:57.599Z,14.00
2018-09-18T23:21:27.023Z,14.00
2018-09-18T23:23:56.737Z,13.90
2018-09-18T23:26:26.164Z,14.10
2018-09-18T23:28:55.728Z,14.10
2018-09-18T23:31:25.335Z,14.00
2018-09-18T23:33:54.905Z,13.90
2018-09-18T23:36:24.346Z,13.80
2018-09-18T23:38:53.640Z,13.70
2018-09-18T23:41:23.319Z,13.70
2018-09-18T23:43:52.599Z,13.70
2018-09-18T23:46:21.862Z,13.60
2018-09-18T23:48:51.176Z,13.60
2018-09-18T23:51:20.541Z,13.50
2018-09-18T23:53:49.828Z,13.50
2018-09-18T23:56:19.392Z,13.50
2018-09-18T23:58:49.842Z,13.50
